Time;durP1;ratioP1;P1;durP2;ratioP2;P2;SDS_P1;SDS_P2;PMS_P1;PMS_P2;Temp;Humidity;BMP_temperature;BMP_pressure;BME280_temperature;BME280_humidity;BME280_pressure;Samples;Min_cycle;Max_cycle;Signal;HPM_P1;HPM_P2
2023/04/21 00:01:19;;;;;;;16.65;3.03;;;;;;;;;;5083942;28;20055;-76
2023/04/21 00:03:51;;;;;;;5.57;2.65;;;;;;;;;;5084532;28;20060;-72
2023/04/21 00:06:25;;;;;;;23.45;2.78;;;;;;;;;;5084896;28;20052;-73
2023/04/21 00:08:56;;;;;;;8.65;2.63;;;;;;;;;;5083933;28;20048;-77
2023/04/21 00:11:27;;;;;;;10.48;2.88;;;;;;;;;;5082870;28;20052;-73
2023/04/21 00:13:57;;;;;;;8.82;2.67;;;;;;;;;;5084336;28;20051;-77
2023/04/21 00:16:31;;;;;;;11.20;2.65;;;;;;;;;;5084293;28;20048;-72
2023/04/21 00:19:05;;;;;;;12.23;2.35;;;;;;;;;;5083746;28;20051;-73
2023/04/21 00:21:36;;;;;;;12.35;2.30;;;;;;;;;;5083397;28;20449;-73
2023/04/21 00:24:07;;;;;;;8.60;2.15;;;;;;;;;;5084157;28;20067;-75
2023/04/21 00:26:38;;;;;;;16.40;2.78;;;;;;;;;;5083318;28;20059;-76
2023/04/21 00:29:13;;;;;;;15.80;2.03;;;;;;;;;;5083790;28;20048;-74
2023/04/21 00:31:44;;;;;;;8.15;2.55;;;;;;;;;;5084518;28;20507;-72
2023/04/21 00:34:16;;;;;;;11.80;2.40;;;;;;;;;;5087735;28;20044;-70
2023/04/21 00:36:47;;;;;;;6.47;1.90;;;;;;;;;;5084815;28;20059;-71
2023/04/21 00:39:18;;;;;;;13.88;2.42;;;;;;;;;;5087060;28;20052;-74
2023/04/21 00:41:49;;;;;;;13.13;2.58;;;;;;;;;;5086152;28;20529;-75
2023/04/21 00:44:20;;;;;;;11.10;2.15;;;;;;;;;;5087277;28;20048;-76
2023/04/21 00:46:54;;;;;;;9.15;2.50;;;;;;;;;;5085816;28;20052;-73
2023/04/21 00:49:26;;;;;;;10.75;2.60;;;;;;;;;;5087498;28;20055;-73
2023/04/21 00:52:00;;;;;;;10.25;2.00;;;;;;;;;;5087290;28;20040;-76
2023/04/21 00:54:38;;;;;;;10.20;2.08;;;;;;;;;;5085296;28;20085;-75
2023/04/21 00:57:11;;;;;;;14.88;2.00;;;;;;;;;;5088096;28;20040;-76
2023/04/21 00:59:42;;;;;;;13.55;2.28;;;;;;;;;;5087399;28;20044;-73
2023/04/21 01:02:18;;;;;;;8.77;2.20;;;;;;;;;;5085369;28;20649;-75
2023/04/21 01:04:49;;;;;;;18.00;2.35;;;;;;;;;;5085914;28;20048;-71
2023/04/21 01:07:21;;;;;;;13.65;2.58;;;;;;;;;;5088681;28;20055;-75
2023/04/21 01:09:52;;;;;;;15.73;2.30;;;;;;;;;;5068989;28;20059;-75
2023/04/21 01:12:23;;;;;;;10.27;2.22;;;;;;;;;;5087459;28;20059;-72
2023/04/21 01:14:53;;;;;;;7.78;2.10;;;;;;;;;;5087319;28;20055;-75
2023/04/21 01:17:25;;;;;;;7.60;2.30;;;;;;;;;;5084906;28;20569;-73
2023/04/21 01:19:58;;;;;;;4.57;2.13;;;;;;;;;;5086954;28;20051;-73
2023/04/21 01:22:30;;;;;;;6.80;2.80;;;;;;;;;;5086906;28;20055;-74
2023/04/21 01:25:01;;;;;;;7.75;2.40;;;;;;;;;;5085039;28;20067;-71
2023/04/21 01:27:32;;;;;;;6.57;2.13;;;;;;;;;;5084853;28;20048;-74
2023/04/21 01:30:06;;;;;;;6.38;2.13;;;;;;;;;;5084521;28;20047;-78
2023/04/21 01:32:36;;;;;;;6.10;1.95;;;;;;;;;;5086835;28;20051;-73
2023/04/21 01:35:09;;;;;;;3.92;1.90;;;;;;;;;;5086880;28;20047;-72
2023/04/21 01:37:41;;;;;;;12.07;2.28;;;;;;;;;;5086318;28;20423;-75
2023/04/21 01:40:12;;;;;;;10.02;1.98;;;;;;;;;;5085140;28;20063;-73
2023/04/21 01:42:43;;;;;;;3.75;1.85;;;;;;;;;;5084277;28;20052;-76
2023/04/21 01:45:13;;;;;;;5.68;1.95;;;;;;;;;;5084405;28;20052;-74
2023/04/21 01:47:45;;;;;;;4.22;1.90;;;;;;;;;;5085086;28;20058;-76
2023/04/21 01:50:16;;;;;;;9.88;1.65;;;;;;;;;;5086573;28;20059;-70
2023/04/21 01:52:47;;;;;;;8.52;1.80;;;;;;;;;;5086311;28;20055;-78
2023/04/21 01:55:17;;;;;;;9.48;1.55;;;;;;;;;;5085836;28;20063;-75
2023/04/21 01:57:48;;;;;;;3.78;1.90;;;;;;;;;;5084788;28;20043;-74
2023/04/21 02:00:19;;;;;;;5.22;1.58;;;;;;;;;;5084381;28;20059;-73
2023/04/21 02:02:49;;;;;;;11.73;1.92;;;;;;;;;;5086440;28;20040;-72
2023/04/21 02:05:20;;;;;;;9.55;1.95;;;;;;;;;;5085719;28;20048;-77
2023/04/21 02:07:51;;;;;;;3.75;1.70;;;;;;;;;;5083809;28;20052;-75
2023/04/21 02:10:23;;;;;;;6.95;2.15;;;;;;;;;;5084108;28;20052;-74
2023/04/21 02:12:54;;;;;;;7.60;2.40;;;;;;;;;;5085869;28;20503;-74
2023/04/21 02:15:24;;;;;;;3.65;1.63;;;;;;;;;;5083880;28;20533;-71
2023/04/21 02:17:55;;;;;;;4.53;1.58;;;;;;;;;;5083763;28;20048;-75
2023/04/21 02:20:26;;;;;;;5.15;1.40;;;;;;;;;;5085960;28;20511;-73
2023/04/21 02:22:56;;;;;;;5.63;1.90;;;;;;;;;;5085426;28;21097;-75
2023/04/21 02:25:28;;;;;;;7.88;2.20;;;;;;;;;;5083592;28;20059;-74
2023/04/21 02:27:59;;;;;;;4.18;1.70;;;;;;;;;;5085751;28;20541;-71
2023/04/21 02:30:30;;;;;;;3.13;1.83;;;;;;;;;;5085541;28;20095;-73
2023/04/21 02:33:01;;;;;;;3.90;2.00;;;;;;;;;;5083900;28;20052;-73
2023/04/21 02:35:32;;;;;;;2.90;1.50;;;;;;;;;;5086268;28;20388;-73
2023/04/21 02:38:06;;;;;;;4.18;2.20;;;;;;;;;;5085749;28;20529;-72
2023/04/21 02:40:37;;;;;;;8.65;2.08;;;;;;;;;;5083776;28;20066;-72
2023/04/21 02:43:07;;;;;;;6.80;1.80;;;;;;;;;;5083830;28;20044;-74
2023/04/21 02:45:37;;;;;;;6.72;1.70;;;;;;;;;;5085639;28;20525;-75
2023/04/21 02:48:08;;;;;;;10.82;2.65;;;;;;;;;;5083776;28;20514;-73
2023/04/21 02:50:40;;;;;;;5.78;1.75;;;;;;;;;;5085730;28;20039;-72
2023/04/21 02:53:10;;;;;;;3.78;2.05;;;;;;;;;;5085336;28;20051;-73
2023/04/21 02:55:40;;;;;;;5.05;1.80;;;;;;;;;;5084440;28;20070;-75
2023/04/21 02:58:10;;;;;;;10.27;2.50;;;;;;;;;;5067716;28;20044;-69
2023/04/21 03:00:42;;;;;;;6.85;1.75;;;;;;;;;;5085217;28;20064;-72
2023/04/21 03:03:15;;;;;;;6.50;2.13;;;;;;;;;;5085039;28;20055;-72
2023/04/21 03:05:45;;;;;;;5.20;1.83;;;;;;;;;;5083501;28;20055;-73
2023/04/21 03:08:15;;;;;;;4.47;1.90;;;;;;;;;;5085017;28;20487;-73
2023/04/21 03:10:46;;;;;;;1.55;1.08;;;;;;;;;;5083713;28;20051;-72
2023/04/21 03:13:18;;;;;;;4.72;1.90;;;;;;;;;;5084883;28;20048;-76
2023/04/21 03:15:51;;;;;;;5.32;1.98;;;;;;;;;;5083303;28;20056;-72
2023/04/21 03:18:22;;;;;;;4.70;1.92;;;;;;;;;;5084938;28;20048;-70
2023/04/21 03:20:51;;;;;;;;;;;;;;;;;;5084215;28;20056;-73
2023/04/21 03:23:24;;;;;;;9.40;1.60;;;;;;;;;;5083048;28;19920;-71
2023/04/21 03:25:55;;;;;;;3.38;1.73;;;;;;;;;;5083430;28;20067;-75
2023/04/21 03:28:25;;;;;;;7.75;2.10;;;;;;;;;;5082778;28;20640;-71
2023/04/21 03:30:55;;;;;;;6.03;1.75;;;;;;;;;;5084786;28;20051;-73
2023/04/21 03:33:27;;;;;;;3.42;1.42;;;;;;;;;;5082663;28;20427;-72
2023/04/21 03:35:57;;;;;;;5.35;2.30;;;;;;;;;;5083224;28;20442;-71
2023/04/21 03:38:30;;;;;;;9.88;2.25;;;;;;;;;;5083488;28;20063;-75
2023/04/21 03:41:04;;;;;;;13.43;1.98;;;;;;;;;;5083167;28;20503;-72
2023/04/21 03:43:35;;;;;;;7.10;2.20;;;;;;;;;;5082813;28;20059;-77
2023/04/21 03:46:05;;;;;;;5.63;1.95;;;;;;;;;;5084462;28;20040;-77
2023/04/21 03:48:36;;;;;;;4.55;1.77;;;;;;;;;;5084666;28;20043;-72
2023/04/21 03:51:06;;;;;;;3.67;1.80;;;;;;;;;;5082920;28;20052;-70
2023/04/21 03:53:36;;;;;;;3.53;2.10;;;;;;;;;;5084499;28;20047;-73
2023/04/21 03:56:07;;;;;;;4.07;1.83;;;;;;;;;;5084640;28;20040;-74
2023/04/21 03:58:37;;;;;;;9.30;1.98;;;;;;;;;;5084577;28;20051;-69
2023/04/21 04:01:08;;;;;;;5.35;1.85;;;;;;;;;;5084600;28;20043;-74
2023/04/21 04:03:38;;;;;;;4.88;1.73;;;;;;;;;;5084303;28;20048;-76
2023/04/21 04:06:14;;;;;;;2.78;1.90;;;;;;;;;;5086431;28;20530;-74
2023/04/21 04:08:51;;;;;;;8.50;1.85;;;;;;;;;;5086944;28;20059;-74
2023/04/21 04:11:22;;;;;;;4.57;2.22;;;;;;;;;;5088192;28;20487;-75
2023/04/21 04:13:52;;;;;;;3.85;2.10;;;;;;;;;;5088551;28;20040;-75
2023/04/21 04:16:23;;;;;;;5.68;1.92;;;;;;;;;;5088484;28;20044;-76
2023/04/21 04:18:53;;;;;;;3.85;1.77;;;;;;;;;;5088410;28;20383;-74
2023/04/21 04:21:23;;;;;;;4.15;2.08;;;;;;;;;;5087512;28;20059;-72
2023/04/21 04:23:54;;;;;;;4.45;1.88;;;;;;;;;;5087762;28;20413;-72
2023/04/21 04:26:26;;;;;;;6.00;1.60;;;;;;;;;;5088082;28;20040;-78
2023/04/21 04:28:56;;;;;;;4.95;1.80;;;;;;;;;;5086264;28;20489;-73
2023/04/21 04:31:28;;;;;;;4.43;1.60;;;;;;;;;;5088535;28;20039;-76
2023/04/21 04:34:00;;;;;;;4.75;1.90;;;;;;;;;;5086865;28;20417;-76
2023/04/21 04:36:30;;;;;;;5.70;1.80;;;;;;;;;;5088025;28;20503;-72
2023/04/21 04:38:59;;;;;;;;;;;;;;;;;;5088696;28;20495;-73
2023/04/21 04:41:30;;;;;;;4.95;1.73;;;;;;;;;;5087586;28;19927;-74
2023/04/21 04:44:03;;;;;;;6.50;2.08;;;;;;;;;;5087804;28;20051;-75
2023/04/21 04:46:35;;;;;;;4.15;1.88;;;;;;;;;;5088063;28;20056;-72
2023/04/21 04:49:06;;;;;;;4.75;1.95;;;;;;;;;;5087681;28;20040;-75
2023/04/21 04:51:36;;;;;;;4.90;1.85;;;;;;;;;;5087103;28;20048;-74
2023/04/21 04:54:06;;;;;;;4.60;1.65;;;;;;;;;;5087354;28;20049;-75
2023/04/21 04:56:39;;;;;;;2.88;1.63;;;;;;;;;;5087373;28;20048;-73
2023/04/21 04:59:09;;;;;;;7.47;2.28;;;;;;;;;;5086864;28;20052;-71
2023/04/21 05:01:40;;;;;;;8.35;1.70;;;;;;;;;;5087530;28;20418;-74
2023/04/21 05:04:15;;;;;;;5.25;1.63;;;;;;;;;;5087057;28;20051;-74
2023/04/21 05:06:46;;;;;;;3.03;1.80;;;;;;;;;;5087187;28;20048;-75
2023/04/21 05:09:16;;;;;;;9.30;1.90;;;;;;;;;;5085813;28;20052;-72
2023/04/21 05:11:46;;;;;;;5.50;1.80;;;;;;;;;;5086963;28;20055;-74
2023/04/21 05:14:16;;;;;;;3.05;1.80;;;;;;;;;;5087591;28;20040;-72
2023/04/21 05:16:46;;;;;;;3.00;1.90;;;;;;;;;;5086881;28;20052;-75
2023/04/21 05:19:17;;;;;;;;;;;;;;;;;;5087404;28;20048;-76
2023/04/21 05:21:47;;;;;;;3.78;1.58;;;;;;;;;;5086557;28;20288;-72
2023/04/21 05:24:22;;;;;;;3.60;2.10;;;;;;;;;;5086784;28;20056;-77
2023/04/21 05:26:52;;;;;;;5.05;1.90;;;;;;;;;;5085047;28;20059;-73
2023/04/21 05:29:24;;;;;;;1.90;1.50;;;;;;;;;;5087159;28;20067;-74
2023/04/21 05:31:54;;;;;;;4.82;1.92;;;;;;;;;;5086918;28;20513;-75
2023/04/21 05:34:25;;;;;;;4.60;1.90;;;;;;;;;;5085684;28;20051;-71
2023/04/21 05:36:55;;;;;;;2.22;1.65;;;;;;;;;;5085493;28;20040;-71
2023/04/21 05:39:27;;;;;;;2.75;1.67;;;;;;;;;;5086313;28;21174;-74
2023/04/21 05:41:58;;;;;;;9.10;2.08;;;;;;;;;;5086259;28;20055;-72
2023/04/21 05:44:28;;;;;;;3.72;2.15;;;;;;;;;;5086498;28;20059;-76
2023/04/21 05:46:58;;;;;;;3.28;1.90;;;;;;;;;;5087158;28;20052;-74
2023/04/21 05:49:28;;;;;;;4.13;2.10;;;;;;;;;;5086415;28;20040;-76
2023/04/21 05:51:59;;;;;;;5.47;1.95;;;;;;;;;;5086483;28;20036;-70
2023/04/21 05:54:29;;;;;;;2.72;1.80;;;;;;;;;;5086209;28;20067;-75
2023/04/21 05:57:00;;;;;;;9.32;1.60;;;;;;;;;;5085919;28;20518;-72
2023/04/21 05:59:30;;;;;;;7.80;1.80;;;;;;;;;;5084897;28;20044;-71
2023/04/21 06:02:02;;;;;;;4.07;1.73;;;;;;;;;;5085978;28;20071;-75
2023/04/21 06:04:32;;;;;;;3.88;1.88;;;;;;;;;;5086020;28;20047;-72
2023/04/21 06:07:12;;;;;;;2.60;1.50;;;;;;;;;;5085947;28;20115;-76
2023/04/21 06:09:48;;;;;;;6.07;2.28;;;;;;;;;;5086227;28;20051;-77
2023/04/21 06:12:19;;;;;;;7.20;2.22;;;;;;;;;;5085898;28;20056;-73
2023/04/21 06:14:50;;;;;;;6.93;2.05;;;;;;;;;;5085333;28;20052;-75
2023/04/21 06:17:20;;;;;;;3.47;2.38;;;;;;;;;;5085781;28;20047;-72
2023/04/21 06:19:52;;;;;;;;;;;;;;;;;;5085575;28;20502;-73
2023/04/21 06:22:23;;;;;;;6.75;1.98;;;;;;;;;;5085520;28;19939;-75
2023/04/21 06:24:55;;;;;;;4.20;2.50;;;;;;;;;;5086633;28;20041;-76
2023/04/21 06:27:27;;;;;;;5.60;2.55;;;;;;;;;;5085698;28;20059;-75
2023/04/21 06:29:56;;;;;;;;;;;;;;;;;;5084992;28;20052;-75
2023/04/21 06:32:26;;;;;;;2.45;1.83;;;;;;;;;;5085210;28;19924;-74
2023/04/21 06:34:57;;;;;;;5.15;2.45;;;;;;;;;;5084356;28;20828;-74
2023/04/21 06:37:27;;;;;;;5.07;2.55;;;;;;;;;;5085456;28;20494;-72
2023/04/21 06:39:57;;;;;;;5.72;2.03;;;;;;;;;;5085663;28;20044;-73
2023/04/21 06:42:26;;;;;;;;;;;;;;;;;;5086281;28;20396;-74
2023/04/21 06:44:56;;;;;;;5.63;2.00;;;;;;;;;;5085476;28;20275;-72
2023/04/21 06:47:27;;;;;;;8.85;2.97;;;;;;;;;;5085678;28;20070;-70
2023/04/21 06:49:58;;;;;;;5.65;2.67;;;;;;;;;;5085214;28;20508;-72
2023/04/21 06:52:28;;;;;;;10.07;2.58;;;;;;;;;;5085084;28;20048;-72
2023/04/21 06:54:58;;;;;;;3.13;2.08;;;;;;;;;;5084797;28;20048;-75
2023/04/21 06:57:29;;;;;;;6.57;2.75;;;;;;;;;;5085762;28;20044;-74
2023/04/21 06:59:59;;;;;;;9.52;2.58;;;;;;;;;;5085713;28;20044;-75
2023/04/21 07:02:30;;;;;;;9.18;2.75;;;;;;;;;;5085817;28;20483;-73
2023/04/21 07:05:01;;;;;;;5.47;2.00;;;;;;;;;;5083076;28;20538;-75
2023/04/21 07:07:32;;;;;;;4.43;2.25;;;;;;;;;;5083449;28;20079;-77
2023/04/21 07:10:02;;;;;;;9.63;2.55;;;;;;;;;;5083500;28;20051;-77
2023/04/21 07:12:32;;;;;;;8.18;2.70;;;;;;;;;;5084772;28;20499;-74
2023/04/21 07:15:05;;;;;;;6.03;2.53;;;;;;;;;;5084979;28;20044;-77
2023/04/21 07:17:36;;;;;;;7.53;2.22;;;;;;;;;;5085477;28;20122;-73
2023/04/21 07:20:06;;;;;;;2.63;1.73;;;;;;;;;;5083380;28;20060;-71
2023/04/21 07:22:37;;;;;;;5.75;2.58;;;;;;;;;;5082832;28;20055;-73
2023/04/21 07:25:08;;;;;;;7.15;2.42;;;;;;;;;;5084739;28;20526;-74
2023/04/21 07:27:40;;;;;;;4.25;1.90;;;;;;;;;;5085349;28;20056;-73
2023/04/21 07:30:10;;;;;;;5.28;2.10;;;;;;;;;;5082840;28;20059;-72
2023/04/21 07:32:41;;;;;;;5.45;1.80;;;;;;;;;;5084875;28;20044;-76
2023/04/21 07:35:11;;;;;;;6.85;2.03;;;;;;;;;;5085013;28;20051;-74
2023/04/21 07:37:43;;;;;;;3.22;2.20;;;;;;;;;;5084760;28;20047;-75
2023/04/21 07:40:14;;;;;;;6.13;1.75;;;;;;;;;;5086059;28;20052;-71
2023/04/21 07:42:45;;;;;;;6.82;2.20;;;;;;;;;;5088699;28;20052;-73
2023/04/21 07:45:14;;;;;;;;;;;;;;;;;;5089535;28;20048;-73
2023/04/21 07:47:45;;;;;;;5.97;2.03;;;;;;;;;;5089032;28;20511;-71
2023/04/21 07:50:18;;;;;;;8.63;1.98;;;;;;;;;;5089237;28;20062;-74
2023/04/21 07:52:49;;;;;;;4.82;1.90;;;;;;;;;;5088647;28;20036;-74
2023/04/21 07:55:20;;;;;;;3.53;1.55;;;;;;;;;;5088261;28;20051;-75
2023/04/21 07:57:49;;;;;;;;;;;;;;;;;;5089233;28;20044;-72
2023/04/21 08:00:19;;;;;;;5.78;1.77;;;;;;;;;;5088508;28;19924;-76
2023/04/21 08:02:50;;;;;;;5.47;1.63;;;;;;;;;;5088461;28;20521;-72
2023/04/21 08:05:21;;;;;;;8.10;2.38;;;;;;;;;;5088421;28;20059;-77
2023/04/21 08:07:55;;;;;;;4.20;1.77;;;;;;;;;;5088650;28;20043;-73
2023/04/21 08:10:25;;;;;;;5.40;2.20;;;;;;;;;;5088145;28;20490;-73
2023/04/21 08:12:55;;;;;;;6.25;1.60;;;;;;;;;;5089037;28;20071;-72
2023/04/21 08:15:27;;;;;;;3.65;1.55;;;;;;;;;;5088559;28;20057;-73
2023/04/21 08:17:58;;;;;;;2.38;1.58;;;;;;;;;;5088502;28;20811;-77
2023/04/21 08:20:27;;;;;;;;;;;;;;;;;;5088858;28;20513;-73
2023/04/21 08:22:57;;;;;;;3.63;2.00;;;;;;;;;;5087724;28;20417;-73
2023/04/21 08:25:28;;;;;;;6.40;2.08;;;;;;;;;;5086150;28;20052;-75
2023/04/21 08:27:58;;;;;;;6.93;1.65;;;;;;;;;;5088200;28;20059;-72
2023/04/21 08:30:29;;;;;;;4.25;2.00;;;;;;;;;;5088461;28;20055;-72
2023/04/21 08:32:59;;;;;;;5.47;2.05;;;;;;;;;;5087804;28;20040;-75
2023/04/21 08:35:29;;;;;;;4.70;2.10;;;;;;;;;;5088251;28;20043;-76
2023/04/21 08:38:01;;;;;;;4.15;1.88;;;;;;;;;;5088065;28;20052;-78
2023/04/21 08:40:37;;;;;;;7.07;2.50;;;;;;;;;;5087190;28;20055;-74
2023/04/21 08:43:08;;;;;;;4.90;2.45;;;;;;;;;;5086348;28;20060;-72
2023/04/21 08:45:38;;;;;;;;;;;;;;;;;;5088213;28;20126;-73
2023/04/21 08:48:17;;;;;;;5.07;2.45;;;;;;;;;;5087714;28;19924;-72
2023/04/21 08:50:51;;;;;;;3.90;2.20;;;;;;;;;;5088337;28;20040;-74
2023/04/21 08:53:21;;;;;;;3.00;1.85;;;;;;;;;;5086433;28;20055;-77
2023/04/21 08:55:54;;;;;;;6.88;1.60;;;;;;;;;;5086737;28;20502;-76
2023/04/21 08:58:40;;;;;;;5.97;2.47;;;;;;;;;;5087490;28;20051;-73
2023/04/21 09:01:11;;;;;;;4.82;1.88;;;;;;;;;;5086402;28;20051;-74
2023/04/21 09:03:41;;;;;;;5.75;2.15;;;;;;;;;;5087578;28;20059;-73
2023/04/21 09:06:11;;;;;;;4.00;1.95;;;;;;;;;;5086327;28;20534;-74
2023/04/21 09:08:52;;;;;;;4.72;2.00;;;;;;;;;;5087230;28;20036;-75
2023/04/21 09:11:23;;;;;;;5.78;2.00;;;;;;;;;;5087029;28;20534;-74
2023/04/21 09:13:57;;;;;;;3.22;1.73;;;;;;;;;;5086997;28;20487;-73
2023/04/21 09:16:32;;;;;;;4.20;2.00;;;;;;;;;;5087264;28;20051;-75
2023/04/21 09:19:02;;;;;;;3.47;1.95;;;;;;;;;;5086857;28;20043;-74
2023/04/21 09:21:32;;;;;;;3.30;1.65;;;;;;;;;;5087086;28;20040;-73
2023/04/21 09:24:07;;;;;;;6.25;2.15;;;;;;;;;;5086996;28;20494;-73
2023/04/21 09:26:41;;;;;;;11.23;2.30;;;;;;;;;;5086632;28;20059;-73
2023/04/21 09:29:11;;;;;;;5.00;1.63;;;;;;;;;;5086593;28;20095;-74
2023/04/21 09:31:44;;;;;;;3.00;1.70;;;;;;;;;;5086825;28;20113;-73
2023/04/21 09:34:26;;;;;;;7.00;2.55;;;;;;;;;;5086876;28;20051;-76
2023/04/21 09:37:05;;;;;;;2.50;1.77;;;;;;;;;;5087093;28;20051;-74
2023/04/21 09:39:35;;;;;;;2.75;1.50;;;;;;;;;;5086783;28;20051;-73
2023/04/21 09:42:30;;;;;;;4.57;1.80;;;;;;;;;;5086395;28;20055;-73
2023/04/21 09:45:03;;;;;;;6.72;2.22;;;;;;;;;;5086368;28;20067;-75
2023/04/21 09:47:41;;;;;;;4.75;1.80;;;;;;;;;;5086361;28;20061;-73
2023/04/21 09:50:12;;;;;;;3.15;1.40;;;;;;;;;;5086370;28;20059;-73
2023/04/21 09:52:44;;;;;;;5.63;1.95;;;;;;;;;;5086643;28;20044;-75
2023/04/21 09:55:17;;;;;;;4.82;2.03;;;;;;;;;;5086680;28;20044;-76
2023/04/21 09:57:49;;;;;;;3.55;2.15;;;;;;;;;;5085230;28;20055;-73
2023/04/21 10:00:23;;;;;;;4.85;1.80;;;;;;;;;;5085994;28;20059;-75
2023/04/21 10:02:58;;;;;;;5.05;1.80;;;;;;;;;;5085845;28;20635;-72
2023/04/21 10:05:28;;;;;;;5.57;2.03;;;;;;;;;;5086705;28;20055;-75
2023/04/21 10:07:58;;;;;;;5.10;2.33;;;;;;;;;;5086261;28;20055;-75
2023/04/21 10:10:30;;;;;;;2.28;1.40;;;;;;;;;;5086015;28;20051;-73
2023/04/21 10:13:02;;;;;;;3.65;1.50;;;;;;;;;;5085986;28;20048;-74
2023/04/21 10:15:38;;;;;;;5.10;2.25;;;;;;;;;;5084160;28;20059;-72
2023/04/21 10:18:20;;;;;;;2.85;1.60;;;;;;;;;;5084516;28;20052;-71
2023/04/21 10:21:09;;;;;;;;;;;;;;;;;;5086321;28;20040;-75
2023/04/21 10:23:42;;;;;;;5.88;1.77;;;;;;;;;;5084933;28;19924;-74
2023/04/21 10:26:35;;;;;;;5.20;2.33;;;;;;;;;;5082860;28;20675;-74
2023/04/21 10:29:08;;;;;;;2.78;1.70;;;;;;;;;;5062686;28;20053;-72
2023/04/21 10:31:54;;;;;;;2.85;1.92;;;;;;;;;;5044534;28;20060;-74
2023/04/21 10:34:37;;;;;;;7.90;1.75;;;;;;;;;;5060016;28;20056;-75
2023/04/21 10:37:11;;;;;;;9.05;2.25;;;;;;;;;;5061576;28;20048;-73
2023/04/21 10:39:51;;;;;;;6.57;2.20;;;;;;;;;;5061982;28;20406;-73
2023/04/21 10:42:39;;;;;;;6.18;1.90;;;;;;;;;;5061769;28;20068;-75
2023/04/21 10:45:11;;;;;;;5.30;1.65;;;;;;;;;;5062140;28;20052;-75
2023/04/21 10:47:48;;;;;;;10.93;3.20;;;;;;;;;;5061697;28;20052;-74
2023/04/21 10:50:27;;;;;;;6.93;1.92;;;;;;;;;;5061833;28;20052;-73
2023/04/21 10:52:58;;;;;;;3.72;1.70;;;;;;;;;;5061543;28;20045;-76
2023/04/21 10:55:29;;;;;;;6.25;2.13;;;;;;;;;;5061935;28;20049;-74
2023/04/21 10:58:03;;;;;;;3.53;1.98;;;;;;;;;;5061608;28;20071;-74
2023/04/21 11:00:33;;;;;;;6.85;1.73;;;;;;;;;;5044035;28;20052;-75
2023/04/21 11:03:04;;;;;;;2.58;1.80;;;;;;;;;;5029854;28;20076;-71
2023/04/21 11:05:39;;;;;;;4.22;1.60;;;;;;;;;;5041154;28;20071;-76
2023/04/21 11:08:14;;;;;;;5.32;1.73;;;;;;;;;;5023565;28;20053;-74
2023/04/21 11:10:53;;;;;;;4.32;2.20;;;;;;;;;;5041406;28;20412;-70
2023/04/21 11:13:28;;;;;;;8.57;2.15;;;;;;;;;;5024128;28;20076;-77
2023/04/21 11:16:02;;;;;;;8.98;2.33;;;;;;;;;;5039602;28;20393;-74
2023/04/21 11:18:44;;;;;;;2.80;1.83;;;;;;;;;;5038990;28;20049;-78
2023/04/21 11:21:21;;;;;;;4.85;1.90;;;;;;;;;;5038117;28;20041;-72
2023/04/21 11:23:53;;;;;;;4.47;1.90;;;;;;;;;;5021530;28;20052;-76
2023/04/21 11:26:37;;;;;;;2.97;1.40;;;;;;;;;;5018555;28;20061;-75
2023/04/21 11:29:09;;;;;;;9.27;2.67;;;;;;;;;;5018588;28;20057;-75
2023/04/21 11:31:47;;;;;;;2.88;1.50;;;;;;;;;;5019413;28;20041;-74
2023/04/21 11:34:20;;;;;;;5.25;1.80;;;;;;;;;;5021514;28;20064;-75
2023/04/21 11:36:52;;;;;;;2.90;1.55;;;;;;;;;;5013796;28;20049;-74
2023/04/21 11:39:22;;;;;;;6.22;1.95;;;;;;;;;;5007999;28;20493;-73
2023/04/21 11:41:52;;;;;;;4.93;1.67;;;;;;;;;;5007746;28;20050;-74
2023/04/21 11:44:36;;;;;;;3.78;1.73;;;;;;;;;;5007073;28;20050;-75
2023/04/21 11:47:17;;;;;;;6.03;2.30;;;;;;;;;;5007629;28;20053;-74
2023/04/21 11:49:53;;;;;;;4.05;2.05;;;;;;;;;;5007823;28;20050;-73
2023/04/21 11:52:25;;;;;;;3.47;1.58;;;;;;;;;;5008165;28;20056;-73
2023/04/21 11:55:00;;;;;;;4.63;1.52;;;;;;;;;;4990651;28;20052;-74
2023/04/21 11:57:32;;;;;;;4.65;2.10;;;;;;;;;;5007579;28;20061;-73
2023/04/21 12:00:05;;;;;;;5.68;1.73;;;;;;;;;;5007398;28;20049;-75
2023/04/21 12:02:35;;;;;;;5.65;1.67;;;;;;;;;;5007842;28;20057;-73
2023/04/21 12:05:13;;;;;;;5.25;2.00;;;;;;;;;;5007252;28;20424;-73
2023/04/21 12:07:47;;;;;;;4.38;1.80;;;;;;;;;;5007248;28;20424;-74
2023/04/21 12:10:19;;;;;;;5.72;1.98;;;;;;;;;;5007779;28;20057;-73
2023/04/21 12:12:50;;;;;;;7.15;2.10;;;;;;;;;;4990308;28;20050;-74
2023/04/21 12:15:22;;;;;;;7.30;1.70;;;;;;;;;;5007239;28;20596;-74
2023/04/21 12:17:55;;;;;;;2.13;1.40;;;;;;;;;;5007266;28;20054;-75
2023/04/21 12:20:28;;;;;;;6.57;2.10;;;;;;;;;;4990176;28;20409;-75
2023/04/21 12:23:00;;;;;;;3.17;1.30;;;;;;;;;;5007401;28;20054;-72
2023/04/21 12:25:30;;;;;;;3.20;1.05;;;;;;;;;;5007231;28;20084;-72
2023/04/21 12:28:00;;;;;;;2.97;1.13;;;;;;;;;;5007268;28;20049;-73
2023/04/21 12:30:31;;;;;;;4.70;1.20;;;;;;;;;;5006396;28;20054;-74
2023/04/21 12:33:07;;;;;;;4.22;1.20;;;;;;;;;;5006982;28;20057;-73
2023/04/21 12:35:38;;;;;;;2.15;0.90;;;;;;;;;;5007079;28;20053;-74
2023/04/21 12:38:10;;;;;;;2.47;1.20;;;;;;;;;;5006722;28;20505;-76
2023/04/21 12:40:40;;;;;;;5.40;1.63;;;;;;;;;;5006137;28;20053;-74
2023/04/21 12:43:10;;;;;;;6.40;1.95;;;;;;;;;;5006267;28;20057;-71
2023/04/21 12:45:42;;;;;;;7.50;2.70;;;;;;;;;;5004178;28;20416;-74
2023/04/21 12:48:14;;;;;;;7.78;1.58;;;;;;;;;;5002571;28;20050;-73
2023/04/21 12:50:46;;;;;;;8.20;1.80;;;;;;;;;;5005501;28;20056;-72
2023/04/21 12:53:16;;;;;;;6.45;1.92;;;;;;;;;;5006552;28;20743;-73
2023/04/21 12:55:47;;;;;;;4.90;1.60;;;;;;;;;;5006047;28;20088;-73
2023/04/21 12:58:32;;;;;;;5.95;1.52;;;;;;;;;;5005830;28;20053;-73
2023/04/21 13:01:02;;;;;;;3.22;1.40;;;;;;;;;;5006126;28;20053;-73
2023/04/21 13:03:32;;;;;;;6.40;1.40;;;;;;;;;;5005260;28;20054;-73
2023/04/21 13:06:04;;;;;;;4.03;1.33;;;;;;;;;;5004805;28;20080;-74
2023/04/21 13:08:35;;;;;;;6.80;1.55;;;;;;;;;;5005889;28;20061;-75
2023/04/21 13:11:06;;;;;;;7.90;2.30;;;;;;;;;;5006144;28;20045;-76
2023/04/21 13:13:37;;;;;;;7.72;1.38;;;;;;;;;;5006381;28;20054;-74
2023/04/21 13:16:11;;;;;;;3.58;1.17;;;;;;;;;;5005229;28;20053;-73
2023/04/21 13:18:42;;;;;;;4.95;1.30;;;;;;;;;;4987018;28;20058;-74
2023/04/21 13:21:13;;;;;;;4.28;1.33;;;;;;;;;;4967792;28;20061;-74
2023/04/21 13:23:43;;;;;;;4.50;1.08;;;;;;;;;;4986282;28;20066;-74
2023/04/21 13:26:14;;;;;;;3.92;1.23;;;;;;;;;;4986437;28;20494;-71
2023/04/21 13:28:45;;;;;;;2.75;1.23;;;;;;;;;;4986179;28;20057;-76
2023/04/21 13:31:16;;;;;;;3.15;0.95;;;;;;;;;;4986616;28;20050;-75
2023/04/21 13:33:46;;;;;;;5.72;1.10;;;;;;;;;;4985442;28;20058;-76
2023/04/21 13:36:17;;;;;;;2.85;0.95;;;;;;;;;;4968379;28;20058;-74
2023/04/21 13:38:49;;;;;;;2.97;1.02;;;;;;;;;;4986237;28;20057;-71
2023/04/21 13:41:19;;;;;;;6.32;1.10;;;;;;;;;;4985850;28;20054;-73
2023/04/21 13:43:51;;;;;;;1.95;0.85;;;;;;;;;;4985712;28;20038;-72
2023/04/21 13:46:22;;;;;;;2.65;1.00;;;;;;;;;;4983221;28;20055;-72
2023/04/21 13:48:53;;;;;;;4.93;1.38;;;;;;;;;;4983308;28;20058;-76
2023/04/21 13:51:23;;;;;;;7.57;1.50;;;;;;;;;;4982615;28;20049;-73
2023/04/21 13:53:53;;;;;;;5.00;0.90;;;;;;;;;;4983466;28;20057;-74
2023/04/21 13:56:24;;;;;;;2.83;1.13;;;;;;;;;;4983286;28;20058;-73
2023/04/21 13:58:55;;;;;;;2.97;1.17;;;;;;;;;;4983007;28;20055;-73
2023/04/21 14:01:25;;;;;;;1.60;0.90;;;;;;;;;;4982952;28;20053;-73
2023/04/21 14:03:56;;;;;;;5.93;0.90;;;;;;;;;;4983181;28;20707;-73
2023/04/21 14:06:27;;;;;;;4.97;1.38;;;;;;;;;;4983265;28;20050;-73
2023/04/21 14:08:59;;;;;;;2.22;1.00;;;;;;;;;;4983006;28;20433;-70
2023/04/21 14:11:29;;;;;;;2.92;0.85;;;;;;;;;;4983175;28;20049;-73
2023/04/21 14:13:59;;;;;;;2.90;1.00;;;;;;;;;;4982920;28;20050;-73
2023/04/21 14:16:39;;;;;;;3.15;1.10;;;;;;;;;;4982987;28;20057;-76
2023/04/21 14:19:10;;;;;;;3.20;1.05;;;;;;;;;;4966015;28;20050;-74
2023/04/21 14:21:40;;;;;;;4.10;0.90;;;;;;;;;;4982620;28;20058;-72
2023/04/21 14:24:11;;;;;;;3.35;1.00;;;;;;;;;;4982193;28;20057;-74
2023/04/21 14:26:41;;;;;;;2.25;0.80;;;;;;;;;;4983005;28;20511;-75
2023/04/21 14:29:12;;;;;;;2.95;1.00;;;;;;;;;;4965796;28;20046;-76
2023/04/21 14:31:43;;;;;;;4.35;1.42;;;;;;;;;;4983150;28;20054;-74
2023/04/21 14:34:15;;;;;;;3.17;0.77;;;;;;;;;;4982931;28;20042;-71
2023/04/21 14:36:49;;;;;;;3.30;0.88;;;;;;;;;;4983137;28;20615;-71
2023/04/21 14:39:20;;;;;;;14.60;3.15;;;;;;;;;;4983108;28;20061;-74
2023/04/21 14:41:50;;;;;;;6.63;1.65;;;;;;;;;;4982828;28;20046;-71
2023/04/21 14:44:20;;;;;;;2.97;0.73;;;;;;;;;;4982615;28;20046;-74
2023/04/21 14:46:52;;;;;;;3.25;0.60;;;;;;;;;;4982742;28;20054;-74
2023/04/21 14:49:39;;;;;;;11.25;1.83;;;;;;;;;;4982802;28;20417;-74
2023/04/21 14:52:10;;;;;;;11.07;1.73;;;;;;;;;;4982814;28;20489;-75
2023/04/21 14:54:40;;;;;;;4.65;0.70;;;;;;;;;;4982846;28;20057;-76
2023/04/21 14:57:11;;;;;;;7.30;1.50;;;;;;;;;;4982372;28;20076;-75
2023/04/21 14:59:45;;;;;;;;;;;;;;;;;;4983635;28;20835;-74
2023/04/21 15:02:15;;;;;;;2.30;0.55;;;;;;;;;;5000657;28;19948;-79
2023/04/21 15:04:46;;;;;;;1.80;0.40;;;;;;;;;;4999804;28;20050;-74
2023/04/21 15:07:17;;;;;;;1.88;0.40;;;;;;;;;;5000712;28;20508;-74
2023/04/21 15:09:54;;;;;;;0.80;0.30;;;;;;;;;;5000268;28;20041;-75
2023/04/21 15:12:24;;;;;;;1.20;0.40;;;;;;;;;;5005191;28;20058;-74
2023/04/21 15:14:54;;;;;;;2.38;0.70;;;;;;;;;;5005063;28;20037;-72